Time;durP1;ratioP1;P1;durP2;ratioP2;P2;SDS_P1;SDS_P2;PMS_P1;PMS_P2;Temp;Humidity;BMP_temperature;BMP_pressure;BME280_temperature;BME280_humidity;BME280_pressure;Samples;Min_cycle;Max_cycle;Signal;HPM_P1;HPM_P2
2021/05/13 00:00:43;;;;;;;11.00;5.37;;;9.90;99.90;;;;;;4154153;28;20227;-76
2021/05/13 00:02:46;;;;;;;4.77;3.40;;;9.80;99.90;;;;;;4157536;28;20234;-76
2021/05/13 00:04:47;;;;;;;5.07;3.23;;;9.80;99.90;;;;;;4160051;28;20254;-77
2021/05/13 00:06:48;;;;;;;3.80;2.70;;;9.80;99.90;;;;;;4159340;28;20310;-76
2021/05/13 00:08:55;;;;;;;4.47;2.63;;;9.80;99.90;;;;;;4158202;28;20459;-76
2021/05/13 00:11:03;;;;;;;4.57;2.90;;;9.70;99.90;;;;;;4165861;28;20260;-76
2021/05/13 00:13:06;;;;;;;4.10;2.80;;;9.80;99.90;;;;;;4162629;28;20253;-76
2021/05/13 00:15:10;;;;;;;4.63;3.03;;;9.70;99.90;;;;;;4161501;28;20497;-76
2021/05/13 00:17:12;;;;;;;5.30;3.40;;;9.70;99.90;;;;;;4160322;28;20219;-76
2021/05/13 00:19:14;;;;;;;4.07;3.03;;;9.70;99.90;;;;;;4159287;28;20331;-78
2021/05/13 00:21:16;;;;;;;5.00;3.10;;;9.70;99.90;;;;;;4157059;28;20207;-77
2021/05/13 00:23:17;;;;;;;5.83;3.27;;;9.70;99.90;;;;;;4156578;28;20235;-76
2021/05/13 00:25:20;;;;;;;6.17;3.30;;;9.70;99.90;;;;;;4159178;28;20204;-76
2021/05/13 00:27:21;;;;;;;5.63;3.00;;;9.70;99.90;;;;;;4161433;28;20454;-76
2021/05/13 00:29:26;;;;;;;5.10;3.20;;;9.70;99.90;;;;;;4166849;28;20469;-77
2021/05/13 00:31:27;;;;;;;5.37;3.20;;;9.70;99.90;;;;;;4165379;28;20206;-76
2021/05/13 00:33:28;;;;;;;5.00;3.37;;;9.70;99.90;;;;;;4169604;28;20286;-76
2021/05/13 00:35:30;;;;;;;5.67;3.57;;;9.70;99.90;;;;;;4166942;28;20238;-76
2021/05/13 00:37:31;;;;;;;4.70;3.20;;;9.80;99.90;;;;;;4156415;28;20215;-76
2021/05/13 00:39:33;;;;;;;6.07;3.27;;;9.70;99.90;;;;;;4158597;28;20219;-77
2021/05/13 00:41:35;;;;;;;9.17;4.00;;;9.70;99.90;;;;;;4150379;28;20204;-76
2021/05/13 00:43:36;;;;;;;6.47;4.13;;;9.70;99.90;;;;;;4156295;28;20210;-77
2021/05/13 00:45:38;;;;;;;7.10;4.10;;;9.70;99.90;;;;;;4158933;28;20481;-76
2021/05/13 00:47:46;;;;;;;6.97;4.50;;;9.70;99.90;;;;;;4159239;28;20218;-76
2021/05/13 00:49:48;;;;;;;9.63;4.83;;;9.70;99.90;;;;;;4155332;28;20218;-76
2021/05/13 00:51:49;;;;;;;7.10;5.17;;;9.70;99.90;;;;;;4160348;28;20222;-76
2021/05/13 00:53:50;;;;;;;8.47;5.37;;;9.60;99.90;;;;;;4158165;28;20242;-78
2021/05/13 00:55:52;;;;;;;8.70;5.13;;;9.60;99.90;;;;;;4160692;28;20555;-77
2021/05/13 00:57:55;;;;;;;6.40;4.47;;;9.60;99.90;;;;;;4159312;28;20217;-76
2021/05/13 01:00:00;;;;;;;6.80;4.90;;;9.60;99.90;;;;;;4154302;28;20480;-77
2021/05/13 01:02:01;;;;;;;8.43;5.67;;;9.60;99.90;;;;;;4150542;28;21004;-76
2021/05/13 01:04:03;;;;;;;9.10;5.90;;;9.60;99.90;;;;;;4155275;28;20453;-77
2021/05/13 01:06:04;;;;;;;8.63;5.87;;;9.60;99.90;;;;;;4154824;28;20196;-76
2021/05/13 01:08:06;;;;;;;9.07;5.90;;;9.60;99.90;;;;;;4152600;28;20469;-76
2021/05/13 01:10:08;;;;;;;8.77;6.20;;;9.60;99.90;;;;;;4152112;28;20693;-76
2021/05/13 01:12:14;;;;;;;10.27;6.33;;;9.60;99.90;;;;;;4156815;28;20324;-76
2021/05/13 01:14:20;;;;;;;10.07;6.00;;;9.60;99.90;;;;;;4158530;28;20478;-77
2021/05/13 01:16:28;;;;;;;10.07;6.60;;;9.60;99.90;;;;;;4150791;28;20696;-78
2021/05/13 01:18:29;;;;;;;10.20;6.57;;;9.60;99.90;;;;;;4150976;28;20243;-78
2021/05/13 01:20:31;;;;;;;11.37;7.07;;;9.60;99.90;;;;;;4154995;28;20218;-76
2021/05/13 01:22:33;;;;;;;11.07;6.47;;;9.60;99.90;;;;;;4160278;28;20476;-76
2021/05/13 01:24:34;;;;;;;9.80;6.33;;;9.60;99.90;;;;;;4161893;28;20449;-76
2021/05/13 01:26:36;;;;;;;12.93;7.20;;;9.60;99.90;;;;;;4157527;28;20466;-76
2021/05/13 01:28:37;;;;;;;13.73;7.83;;;9.60;99.90;;;;;;4154115;28;20478;-76
2021/05/13 01:30:38;;;;;;;9.93;6.67;;;9.60;99.90;;;;;;4156338;28;20469;-76
2021/05/13 01:32:40;;;;;;;11.67;7.30;;;9.60;99.90;;;;;;4161451;28;20301;-76
2021/05/13 01:34:42;;;;;;;11.57;6.70;;;9.60;99.90;;;;;;4159208;28;20277;-78
2021/05/13 01:36:43;;;;;;;9.53;6.20;;;9.60;99.90;;;;;;4147685;28;20469;-76
2021/05/13 01:38:46;;;;;;;9.83;6.50;;;9.60;99.90;;;;;;4162269;28;20550;-76
2021/05/13 01:40:51;;;;;;;9.20;6.00;;;9.70;99.90;;;;;;4154082;28;20575;-76
2021/05/13 01:42:52;;;;;;;12.57;6.63;;;9.70;99.90;;;;;;4156370;28;20226;-76
2021/05/13 01:44:53;;;;;;;10.17;6.37;;;9.60;99.90;;;;;;4160540;28;20466;-76
2021/05/13 01:46:54;;;;;;;9.33;6.03;;;9.60;99.90;;;;;;4161729;28;20211;-76
2021/05/13 01:48:56;;;;;;;9.97;6.37;;;9.60;99.90;;;;;;4161399;28;20519;-76
2021/05/13 01:50:57;;;;;;;10.97;6.83;;;9.60;99.90;;;;;;4156436;28;20218;-76
2021/05/13 01:53:00;;;;;;;10.07;6.43;;;9.60;99.90;;;;;;4178687;23;20757;-81
2021/05/13 01:55:02;;;;;;;8.27;5.97;;;9.60;99.90;;;;;;4155713;28;20230;-82
2021/05/13 01:57:04;;;;;;;9.10;6.60;;;9.60;99.90;;;;;;4161833;28;20226;-81
2021/05/13 01:59:05;;;;;;;13.00;6.63;;;9.60;99.90;;;;;;4160681;28;20520;-82
2021/05/13 02:01:09;;;;;;;8.97;6.53;;;9.60;99.90;;;;;;4160116;28;20261;-81
2021/05/13 02:03:11;;;;;;;9.40;6.17;;;9.60;99.90;;;;;;4159486;28;20994;-82
2021/05/13 02:05:13;;;;;;;9.90;6.13;;;9.60;99.90;;;;;;4161208;28;20469;-82
2021/05/13 02:07:14;;;;;;;10.37;6.77;;;9.60;99.90;;;;;;4155208;28;20990;-82
2021/05/13 02:09:16;;;;;;;10.67;6.67;;;9.60;99.90;;;;;;4163153;28;20211;-82
2021/05/13 02:11:18;;;;;;;12.13;6.80;;;9.60;99.90;;;;;;4164490;28;20679;-82
2021/05/13 02:13:19;;;;;;;9.03;6.03;;;9.60;99.90;;;;;;4160468;28;20227;-82
2021/05/13 02:15:20;;;;;;;9.03;5.90;;;9.60;99.90;;;;;;4164789;28;20285;-81
2021/05/13 02:17:21;;;;;;;9.13;6.03;;;9.60;99.90;;;;;;4157882;28;20532;-82
2021/05/13 02:19:22;;;;;;;11.20;7.07;;;9.60;99.90;;;;;;4158845;28;20214;-83
2021/05/13 02:21:24;;;;;;;12.23;6.70;;;9.60;99.90;;;;;;4163397;28;20229;-82
2021/05/13 02:23:25;;;;;;;12.17;6.90;;;9.60;99.90;;;;;;4154796;28;20239;-83
2021/05/13 02:25:27;;;;;;;13.00;7.10;;;9.60;99.90;;;;;;4164671;28;20480;-82
2021/05/13 02:27:29;;;;;;;11.37;7.00;;;9.60;99.90;;;;;;4159674;28;20515;-82
2021/05/13 02:29:31;;;;;;;9.53;6.70;;;9.60;99.90;;;;;;4157419;28;20466;-82
2021/05/13 02:31:32;;;;;;;9.30;6.13;;;9.60;99.90;;;;;;4153714;28;20218;-82
2021/05/13 02:33:33;;;;;;;12.40;6.63;;;9.60;99.90;;;;;;4157810;28;20255;-82
2021/05/13 02:35:35;;;;;;;13.13;7.73;;;9.60;99.90;;;;;;4162744;28;20657;-83
2021/05/13 02:37:36;;;;;;;14.43;7.97;;;9.60;99.90;;;;;;4156486;28;20228;-82
2021/05/13 02:39:37;;;;;;;16.20;8.50;;;9.60;99.90;;;;;;4157531;28;20481;-84
2021/05/13 02:41:43;;;;;;;11.80;7.47;;;9.60;99.90;;;;;;4158090;28;20462;-82
2021/05/13 02:43:45;;;;;;;11.67;7.63;;;9.50;99.90;;;;;;4155430;28;20485;-82
2021/05/13 02:45:46;;;;;;;14.43;7.60;;;9.50;99.90;;;;;;4165002;28;20469;-84
2021/05/13 02:47:47;;;;;;;15.47;8.60;;;9.50;99.90;;;;;;4157340;28;20211;-82
2021/05/13 02:49:48;;;;;;;15.43;8.10;;;9.50;99.90;;;;;;4164610;28;20472;-83
2021/05/13 02:51:49;;;;;;;13.33;7.73;;;9.50;99.90;;;;;;4163646;28;20470;-83
2021/05/13 02:53:51;;;;;;;13.13;7.43;;;9.50;99.90;;;;;;4160171;28;20482;-83
2021/05/13 02:55:52;;;;;;;10.03;6.90;;;9.50;99.90;;;;;;4157138;28;20978;-83
2021/05/13 02:57:53;;;;;;;10.73;6.83;;;9.50;99.90;;;;;;4161269;28;20528;-82
2021/05/13 03:00:01;;;;;;;11.13;7.00;;;9.50;99.90;;;;;;4159611;28;20465;-83
2021/05/13 03:02:02;;;;;;;10.53;7.07;;;9.50;99.90;;;;;;4158253;28;20517;-82
2021/05/13 03:04:04;;;;;;;12.27;7.13;;;9.50;99.90;;;;;;4157334;28;20834;-83
2021/05/13 03:06:05;;;;;;;12.53;7.50;;;9.50;99.90;;;;;;4150868;28;20968;-82
2021/05/13 03:08:06;;;;;;;10.53;6.80;;;9.50;99.90;;;;;;4160022;28;20215;-82
2021/05/13 03:10:15;;;;;;;14.03;7.10;;;9.40;99.90;;;;;;4159510;28;20478;-82
2021/05/13 03:12:16;;;;;;;11.70;6.57;;;9.40;99.90;;;;;;4164199;28;20486;-83
2021/05/13 03:14:18;;;;;;;12.23;6.90;;;9.40;99.90;;;;;;4156455;28;21025;-82
2021/05/13 03:16:20;;;;;;;10.53;6.40;;;9.40;99.90;;;;;;4159911;28;20493;-83
2021/05/13 03:18:24;;;;;;;9.73;5.77;;;9.40;99.90;;;;;;4158226;28;20470;-83
2021/05/13 03:20:29;;;;;;;10.73;6.10;;;9.40;99.90;;;;;;4160941;28;20814;-83
2021/05/13 03:22:30;;;;;;;10.67;6.50;;;9.40;99.90;;;;;;4163377;28;20528;-82
2021/05/13 03:24:35;;;;;;;9.97;6.07;;;9.40;99.90;;;;;;4161940;28;20462;-83
2021/05/13 03:26:43;;;;;;;10.53;6.80;;;9.40;99.90;;;;;;4164946;28;20458;-82
2021/05/13 03:28:44;;;;;;;9.50;6.00;;;9.40;99.90;;;;;;4165107;28;20457;-82
2021/05/13 03:30:46;;;;;;;10.17;6.03;;;9.40;99.90;;;;;;4152617;28;20897;-82
2021/05/13 03:32:48;;;;;;;15.67;6.97;;;9.40;99.90;;;;;;4157082;28;20528;-82
2021/05/13 03:34:49;;;;;;;10.53;6.40;;;9.40;99.90;;;;;;4155402;28;20967;-82
2021/05/13 03:36:50;;;;;;;8.97;6.00;;;9.40;99.90;;;;;;4157731;28;20482;-82
2021/05/13 03:38:52;;;;;;;12.63;6.43;;;9.40;99.90;;;;;;4159526;28;20994;-82
2021/05/13 03:40:53;;;;;;;9.50;6.13;;;9.40;99.90;;;;;;4157721;28;20486;-82
2021/05/13 03:42:54;;;;;;;13.90;6.50;;;9.40;99.90;;;;;;4160370;28;20524;-82
2021/05/13 03:44:55;;;;;;;10.03;6.40;;;9.40;99.90;;;;;;4155847;28;20207;-83
2021/05/13 03:46:57;;;;;;;11.27;6.17;;;9.40;99.90;;;;;;4160651;28;20485;-82
2021/05/13 03:48:59;;;;;;;8.30;5.33;;;9.40;99.90;;;;;;4152641;28;20204;-83
2021/05/13 03:51:00;;;;;;;12.20;6.30;;;9.50;99.90;;;;;;4155122;28;20520;-82
2021/05/13 03:53:02;;;;;;;10.83;6.33;;;9.50;99.90;;;;;;4154271;28;20301;-83
2021/05/13 03:55:05;;;;;;;8.83;5.70;;;9.50;99.90;;;;;;4152539;28;20577;-83
2021/05/13 03:57:06;;;;;;;11.93;6.00;;;9.50;99.90;;;;;;4157584;28;20219;-83
2021/05/13 03:59:12;;;;;;;11.40;5.70;;;9.50;99.90;;;;;;4159085;28;20481;-82
2021/05/13 04:01:18;;;;;;;9.63;6.20;;;9.50;99.90;;;;;;4157807;28;20243;-82
2021/05/13 04:03:19;;;;;;;8.60;5.40;;;9.50;99.90;;;;;;4155771;28;20235;-82
2021/05/13 04:05:22;;;;;;;12.37;6.23;;;9.50;99.90;;;;;;4152220;28;20208;-82
2021/05/13 04:07:23;;;;;;;9.73;5.77;;;9.50;99.90;;;;;;4161035;28;20246;-82
2021/05/13 04:09:25;;;;;;;11.80;6.47;;;9.50;99.90;;;;;;4159854;28;20223;-82
2021/05/13 04:11:26;;;;;;;11.30;5.80;;;9.50;99.90;;;;;;4163882;28;20664;-82
2021/05/13 04:13:27;;;;;;;8.87;6.00;;;9.50;99.90;;;;;;4158615;28;20968;-82
2021/05/13 04:15:28;;;;;;;8.97;5.53;;;9.50;99.90;;;;;;4154773;28;20712;-83
2021/05/13 04:17:29;;;;;;;11.10;5.67;;;9.50;99.90;;;;;;4162831;28;20238;-81
2021/05/13 04:19:31;;;;;;;10.37;6.27;;;9.50;99.90;;;;;;4168576;28;20550;-81
2021/05/13 04:21:33;;;;;;;11.00;5.13;;;9.50;99.90;;;;;;4164477;28;20490;-81
2021/05/13 04:23:34;;;;;;;8.73;5.50;;;9.50;99.90;;;;;;4170806;28;20243;-81
2021/05/13 04:25:36;;;;;;;12.27;6.20;;;9.50;99.90;;;;;;4168492;28;20233;-81
2021/05/13 04:27:37;;;;;;;11.07;5.37;;;9.50;99.90;;;;;;4165840;28;20195;-81
2021/05/13 04:29:38;;;;;;;11.47;5.70;;;9.50;99.90;;;;;;4175010;28;20215;-81
2021/05/13 04:31:39;;;;;;;6.93;4.73;;;9.50;99.90;;;;;;4162775;28;20208;-81
2021/05/13 04:33:40;;;;;;;10.87;5.63;;;9.50;99.90;;;;;;4168237;28;20227;-81
2021/05/13 04:35:42;;;;;;;7.40;5.17;;;9.50;99.90;;;;;;4166549;28;20224;-81
2021/05/13 04:37:44;;;;;;;7.43;5.27;;;9.50;99.90;;;;;;4159019;28;20211;-81
2021/05/13 04:39:45;;;;;;;6.20;4.43;;;9.50;99.90;;;;;;4156962;28;20255;-82
2021/05/13 04:41:46;;;;;;;6.10;4.40;;;9.50;99.90;;;;;;4171801;28;20214;-80
2021/05/13 04:43:48;;;;;;;7.50;4.27;;;9.50;99.90;;;;;;4170006;28;20231;-82
2021/05/13 04:45:50;;;;;;;6.40;4.57;;;9.50;99.90;;;;;;4168601;28;20215;-81
2021/05/13 04:48:03;;;;;;;10.37;5.37;;;9.60;99.90;;;;;;4172812;28;20222;-81
2021/05/13 04:50:06;;;;;;;6.37;3.93;;;9.60;99.90;;;;;;4161734;28;20226;-82
2021/05/13 04:52:07;;;;;;;9.00;4.10;;;9.60;99.90;;;;;;4175341;28;20815;-81
2021/05/13 04:54:11;;;;;;;8.27;4.30;;;9.60;99.90;;;;;;4164017;28;20216;-82
2021/05/13 04:56:12;;;;;;;8.87;4.00;;;9.60;99.90;;;;;;4165839;28;20219;-82
2021/05/13 04:58:14;;;;;;;6.37;3.73;;;9.60;99.90;;;;;;4171658;28;20462;-81
2021/05/13 05:00:16;;;;;;;6.17;3.40;;;9.60;99.90;;;;;;4167784;28;20515;-82
2021/05/13 05:02:17;;;;;;;6.43;3.40;;;9.60;99.90;;;;;;4177116;28;20495;-82
2021/05/13 05:04:18;;;;;;;5.93;3.47;;;9.60;99.90;;;;;;4175974;28;20214;-82
2021/05/13 05:06:20;;;;;;;6.43;3.50;;;9.60;99.90;;;;;;4170525;28;20204;-81
2021/05/13 05:08:21;;;;;;;7.27;3.80;;;9.60;99.90;;;;;;4170518;28;20532;-81
2021/05/13 05:10:26;;;;;;;5.63;3.03;;;9.60;99.90;;;;;;4171950;28;20573;-81
2021/05/13 05:12:27;;;;;;;6.40;3.30;;;9.60;99.90;;;;;;4168281;28;20482;-81
2021/05/13 05:14:28;;;;;;;5.67;3.60;;;9.60;99.90;;;;;;4167760;28;20726;-81
2021/05/13 05:16:29;;;;;;;6.27;3.50;;;9.60;99.90;;;;;;4171310;28;20325;-81
2021/05/13 05:18:31;;;;;;;6.23;3.17;;;9.60;99.90;;;;;;4171974;28;20271;-81
2021/05/13 05:20:32;;;;;;;5.57;2.87;;;9.60;99.90;;;;;;4165287;28;20203;-81
2021/05/13 05:22:34;;;;;;;5.87;2.93;;;9.50;99.90;;;;;;4171126;28;20246;-81
2021/05/13 05:24:35;;;;;;;5.83;3.37;;;9.50;99.90;;;;;;4173312;28;20208;-82
2021/05/13 05:26:37;;;;;;;5.87;3.80;;;9.50;99.90;;;;;;4164699;28;20450;-81
2021/05/13 05:28:39;;;;;;;8.30;3.20;;;9.50;99.90;;;;;;4175696;28;20457;-81
2021/05/13 05:30:41;;;;;;;5.07;2.90;;;9.50;99.90;;;;;;4169539;28;20570;-82
2021/05/13 05:32:42;;;;;;;5.60;3.30;;;9.40;99.90;;;;;;4175003;28;20470;-83
2021/05/13 05:34:43;;;;;;;6.13;3.23;;;9.50;99.90;;;;;;4166663;28;20537;-82
2021/05/13 05:36:45;;;;;;;8.03;3.27;;;9.50;99.90;;;;;;4167166;28;20490;-82
2021/05/13 05:38:46;;;;;;;7.40;3.63;;;9.50;99.90;;;;;;4168680;28;20467;-82
2021/05/13 05:40:48;;;;;;;7.10;3.73;;;9.50;99.90;;;;;;4162082;28;20583;-82
2021/05/13 05:42:51;;;;;;;7.10;3.60;;;9.50;99.90;;;;;;4171628;28;20923;-82
2021/05/13 05:44:52;;;;;;;4.73;3.43;;;9.50;99.90;;;;;;4162935;28;20482;-82
2021/05/13 05:46:53;;;;;;;5.30;3.57;;;9.50;99.90;;;;;;4173165;28;20466;-81
2021/05/13 05:48:56;;;;;;;6.40;3.87;;;9.50;99.90;;;;;;4167637;28;20473;-82
2021/05/13 05:50:57;;;;;;;6.60;3.80;;;9.60;99.90;;;;;;4173360;28;20480;-82
2021/05/13 05:52:59;;;;;;;6.07;4.07;;;9.50;99.90;;;;;;4169170;28;20497;-82
2021/05/13 05:55:00;;;;;;;7.23;3.70;;;9.50;99.90;;;;;;4165238;28;20486;-82
2021/05/13 05:57:02;;;;;;;6.37;4.40;;;9.50;99.90;;;;;;4172993;28;20541;-82
2021/05/13 05:59:06;;;;;;;7.07;3.93;;;9.50;99.90;;;;;;4172299;28;20487;-82
2021/05/13 06:01:07;;;;;;;8.50;3.90;;;9.50;99.90;;;;;;4172990;28;20211;-82
2021/05/13 06:03:08;;;;;;;9.30;4.60;;;9.50;99.90;;;;;;4167617;28;20853;-81
2021/05/13 06:05:10;;;;;;;8.37;4.50;;;9.60;99.90;;;;;;4165678;28;20215;-82
2021/05/13 06:07:12;;;;;;;6.60;3.70;;;9.60;99.90;;;;;;4167132;28;20207;-82
2021/05/13 06:09:13;;;;;;;7.20;4.67;;;9.70;99.90;;;;;;4170003;28;20478;-83
2021/05/13 06:11:14;;;;;;;5.57;3.60;;;9.70;99.90;;;;;;4167775;28;20211;-82
2021/05/13 06:13:15;;;;;;;6.63;4.43;;;9.70;99.90;;;;;;4169129;28;20223;-82
2021/05/13 06:15:19;;;;;;;7.07;4.50;;;9.70;99.90;;;;;;4170058;28;20238;-82
2021/05/13 06:17:20;;;;;;;7.97;5.00;;;9.70;99.90;;;;;;4169330;28;20281;-82
2021/05/13 06:19:21;;;;;;;8.20;4.80;;;9.70;99.90;;;;;;4171155;28;20246;-83
2021/05/13 06:21:23;;;;;;;8.50;4.80;;;9.80;99.90;;;;;;4166577;28;20466;-82
2021/05/13 06:23:25;;;;;;;8.70;4.73;;;9.80;99.90;;;;;;4167899;28;20222;-82
2021/05/13 06:25:27;;;;;;;8.37;4.57;;;9.70;99.90;;;;;;4166273;28;20208;-82
2021/05/13 06:27:28;;;;;;;8.07;4.30;;;9.70;99.90;;;;;;4163692;28;20204;-83
2021/05/13 06:29:30;;;;;;;9.13;5.10;;;9.70;99.90;;;;;;4170095;28;20239;-82
2021/05/13 06:31:32;;;;;;;7.10;4.47;;;9.70;99.90;;;;;;4169353;28;20208;-82
2021/05/13 06:33:33;;;;;;;12.00;5.10;;;9.70;99.90;;;;;;4158882;28;20234;-82
2021/05/13 06:35:35;;;;;;;11.63;4.93;;;9.80;99.90;;;;;;4170950;28;20250;-82
2021/05/13 06:37:37;;;;;;;8.07;5.20;;;9.80;99.90;;;;;;4167319;28;20207;-82
2021/05/13 06:39:38;;;;;;;9.97;4.77;;;9.80;99.90;;;;;;4160880;28;20207;-82
2021/05/13 06:41:41;;;;;;;8.93;4.83;;;9.80;99.90;;;;;;4167958;28;20474;-82
2021/05/13 06:43:43;;;;;;;6.37;4.80;;;9.80;99.90;;;;;;4162937;28;20489;-82
2021/05/13 06:45:44;;;;;;;11.60;4.70;;;9.80;99.90;;;;;;4160353;28;20219;-82
2021/05/13 06:47:47;;;;;;;9.20;4.90;;;9.90;99.90;;;;;;4152800;28;20519;-81
2021/05/13 06:49:49;;;;;;;8.70;4.90;;;9.90;99.90;;;;;;4157495;28;20809;-81
2021/05/13 06:51:50;;;;;;;9.67;5.13;;;9.90;99.90;;;;;;4161612;28;20414;-80
2021/05/13 06:53:51;;;;;;;8.30;4.33;;;9.90;99.90;;;;;;4163611;28;20211;-80
2021/05/13 06:55:53;;;;;;;7.53;4.30;;;9.90;99.90;;;;;;4163777;28;20489;-81
2021/05/13 06:57:54;;;;;;;7.20;4.57;;;9.90;99.90;;;;;;4160303;28;20746;-80
2021/05/13 06:59:55;;;;;;;6.97;4.70;;;9.90;99.90;;;;;;4159277;28;20248;-80
2021/05/13 07:01:56;;;;;;;7.17;4.30;;;9.90;99.90;;;;;;4164632;28;20203;-81
2021/05/13 07:03:59;;;;;;;9.43;4.60;;;9.90;99.90;;;;;;4157894;28;20273;-81
2021/05/13 07:06:01;;;;;;;7.60;4.43;;;9.90;99.90;;;;;;4155861;28;20203;-84
2021/05/13 07:08:04;;;;;;;5.63;4.33;;;10.10;99.90;;;;;;4158578;28;20219;-80
2021/05/13 07:10:06;;;;;;;8.87;4.30;;;9.90;99.90;;;;;;4162973;28;20466;-80
2021/05/13 07:12:08;;;;;;;8.90;4.80;;;9.90;99.90;;;;;;4160492;28;20223;-80
2021/05/13 07:14:10;;;;;;;6.77;4.20;;;9.90;99.90;;;;;;4160159;28;20208;-80
2021/05/13 07:16:11;;;;;;;6.43;4.33;;;10.00;99.90;;;;;;4157377;28;20297;-80
2021/05/13 07:18:13;;;;;;;7.27;4.70;;;10.00;99.90;;;;;;4157112;28;20216;-79
2021/05/13 07:20:16;;;;;;;7.80;3.97;;;10.00;99.90;;;;;;4162247;28;20208;-79
2021/05/13 07:22:18;;;;;;;7.37;4.67;;;10.10;99.90;;;;;;4160804;28;20242;-80
2021/05/13 07:24:19;;;;;;;7.30;4.10;;;10.10;99.90;;;;;;4162206;28;20214;-79
2021/05/13 07:26:22;;;;;;;9.30;4.40;;;10.10;99.90;;;;;;4159290;28;20584;-81
2021/05/13 07:28:23;;;;;;;9.53;4.60;;;10.10;99.90;;;;;;4164244;28;20203;-79
2021/05/13 07:30:24;;;;;;;10.83;5.20;;;10.10;99.90;;;;;;4159168;28;20220;-83
2021/05/13 07:32:25;;;;;;;9.27;4.80;;;10.10;99.90;;;;;;4163655;28;20288;-80
2021/05/13 07:34:27;;;;;;;10.17;5.07;;;10.10;99.90;;;;;;4160951;28;20689;-81
2021/05/13 07:36:29;;;;;;;8.57;5.00;;;10.10;99.90;;;;;;4156892;28;20485;-81
2021/05/13 07:38:30;;;;;;;9.57;5.17;;;10.10;99.90;;;;;;4166172;28;20204;-80
2021/05/13 07:40:32;;;;;;;7.77;4.60;;;10.20;99.90;;;;;;4168308;28;20307;-83
2021/05/13 07:42:33;;;;;;;7.47;5.10;;;10.20;99.90;;;;;;4178630;28;20237;-83
2021/05/13 07:44:34;;;;;;;6.93;4.97;;;10.20;99.90;;;;;;4173332;28;20637;-85
2021/05/13 07:46:38;;;;;;;7.53;5.17;;;10.30;99.90;;;;;;4175060;28;20211;-82
2021/05/13 07:48:40;;;;;;;7.30;4.80;;;10.30;99.90;;;;;;4165309;28;20861;-80
2021/05/13 07:50:43;;;;;;;7.77;5.30;;;10.40;99.90;;;;;;4165453;28;20242;-81
2021/05/13 07:52:46;;;;;;;7.77;4.50;;;10.40;99.90;;;;;;4193584;22;20581;-79
2021/05/13 07:54:47;;;;;;;8.63;5.10;;;10.50;99.90;;;;;;4176321;28;20668;-79
2021/05/13 07:56:49;;;;;;;6.73;4.50;;;10.50;99.90;;;;;;4173204;28;20230;-79
2021/05/13 07:58:50;;;;;;;10.17;5.10;;;10.50;99.90;;;;;;4170087;28;20207;-78
2021/05/13 08:00:51;;;;;;;8.97;5.10;;;10.50;99.90;;;;;;4173189;28;20255;-79
2021/05/13 08:02:53;;;;;;;8.90;5.40;;;10.60;99.90;;;;;;4167352;28;20224;-79
2021/05/13 08:04:54;;;;;;;8.27;5.20;;;10.60;99.90;;;;;;4164869;28;20219;-79
2021/05/13 08:06:55;;;;;;;8.30;4.83;;;10.60;99.90;;;;;;4151018;28;20216;-79
2021/05/13 08:08:57;;;;;;;10.87;5.30;;;10.70;99.90;;;;;;4149901;28;20971;-79
2021/05/13 08:10:58;;;;;;;10.70;4.97;;;10.70;99.90;;;;;;4159212;28;20212;-79
2021/05/13 08:13:00;;;;;;;7.97;4.87;;;10.70;99.90;;;;;;4157680;28;20227;-78
2021/05/13 08:15:01;;;;;;;9.03;5.23;;;10.70;99.90;;;;;;4158928;28;20216;-79
2021/05/13 08:17:02;;;;;;;8.20;5.07;;;10.70;99.90;;;;;;4158650;28;20231;-79
2021/05/13 08:19:03;;;;;;;9.13;4.60;;;10.70;99.90;;;;;;4157463;28;20568;-78
2021/05/13 08:21:05;;;;;;;8.57;4.43;;;10.70;99.90;;;;;;4149772;28;20212;-79
2021/05/13 08:23:07;;;;;;;6.50;4.33;;;10.80;99.90;;;;;;4160891;28;20639;-79
2021/05/13 08:25:11;;;;;;;11.30;4.97;;;10.80;99.90;;;;;;4158653;28;20243;-79
2021/05/13 08:27:12;;;;;;;10.23;5.17;;;10.90;99.90;;;;;;4148708;28;20208;-78
2021/05/13 08:29:13;;;;;;;7.40;4.50;;;10.90;99.90;;;;;;4151484;28;20230;-78
2021/05/13 08:31:15;;;;;;;8.87;4.77;;;10.80;99.90;;;;;;4150645;28;20689;-78
2021/05/13 08:33:16;;;;;;;9.83;4.93;;;10.80;99.90;;;;;;4152388;28;20697;-79
2021/05/13 08:35:17;;;;;;;7.77;4.47;;;10.80;99.90;;;;;;4147781;28;20236;-78
2021/05/13 08:37:19;;;;;;;6.37;4.13;;;10.90;99.90;;;;;;4153814;28;20205;-78
2021/05/13 08:39:20;;;;;;;5.80;3.60;;;10.90;99.90;;;;;;4147817;28;20221;-78
2021/05/13 08:41:22;;;;;;;6.97;3.70;;;10.90;99.90;;;;;;4151397;28;20217;-78
2021/05/13 08:43:25;;;;;;;6.37;3.50;;;10.90;99.90;;;;;;4149103;28;20233;-78
2021/05/13 08:45:27;;;;;;;6.63;3.67;;;10.90;99.90;;;;;;4150620;28;20204;-77
2021/05/13 08:47:28;;;;;;;6.40;4.00;;;11.00;99.90;;;;;;4148452;28;20228;-78
2021/05/13 08:49:29;;;;;;;7.17;4.10;;;11.00;99.90;;;;;;4155550;28;20221;-78
2021/05/13 08:51:31;;;;;;;6.03;3.90;;;11.10;99.90;;;;;;4161890;28;20220;-78
2021/05/13 08:53:32;;;;;;;6.73;4.10;;;11.20;99.90;;;;;;4150102;28;20279;-78
2021/05/13 08:55:34;;;;;;;7.60;4.50;;;11.20;99.90;;;;;;4154125;28;20248;-78
2021/05/13 08:57:37;;;;;;;7.93;4.80;;;11.20;99.90;;;;;;4154251;28;20210;-78
2021/05/13 08:59:41;;;;;;;9.20;5.10;;;11.30;99.90;;;;;;4147594;28;20503;-80
2021/05/13 09:01:56;;;;;;;10.40;5.60;;;11.20;99.90;;;;;;4151035;28;20211;-78
2021/05/13 09:03:58;;;;;;;8.57;5.17;;;11.30;99.90;;;;;;4150563;28;20232;-78
2021/05/13 09:05:59;;;;;;;7.17;4.90;;;11.30;99.90;;;;;;4154869;28;20205;-78
2021/05/13 09:08:05;;;;;;;8.43;5.07;;;11.30;99.90;;;;;;4157932;28;20662;-78
2021/05/13 09:10:08;;;;;;;8.80;4.73;;;11.30;99.90;;;;;;4151958;28;20298;-78
2021/05/13 09:12:10;;;;;;;9.00;5.13;;;11.40;99.90;;;;;;4156376;28;20251;-78
2021/05/13 09:14:12;;;;;;;7.70;5.33;;;11.40;99.90;;;;;;4151526;28;20300;-78
2021/05/13 09:16:30;;;;;;;10.23;5.93;;;11.50;99.90;;;;;;4150671;28;20713;-78
2021/05/13 09:18:32;;;;;;;9.17;5.33;;;11.60;99.90;;;;;;4158330;28;20666;-78
2021/05/13 09:20:37;;;;;;;12.77;5.63;;;11.70;99.90;;;;;;4152794;28;20231;-78
2021/05/13 09:22:38;;;;;;;8.20;5.60;;;11.80;99.90;;;;;;4147141;28;20225;-78
2021/05/13 09:24:44;;;;;;;9.30;5.90;;;11.80;99.90;;;;;;4158522;28;20263;-78
2021/05/13 09:26:46;;;;;;;9.70;5.70;;;11.90;99.90;;;;;;4149750;28;20209;-78
2021/05/13 09:28:49;;;;;;;8.23;4.93;;;11.90;99.90;;;;;;4150401;28;20220;-78
2021/05/13 09:30:51;;;;;;;8.17;5.17;;;11.90;99.90;;;;;;4150107;28;20258;-78
2021/05/13 09:32:54;;;;;;;11.07;5.37;;;11.90;99.90;;;;;;4156927;28;20258;-78
2021/05/13 09:34:54;;;;;;;13.67;7.53;;;12.00;99.90;;;;;;4154007;28;20225;-80
2021/05/13 09:36:58;;;;;;;118.03;65.77;;;12.00;99.90;;;;;;4154221;28;20230;-79
2021/05/13 09:38:59;;;;;;;28.70;17.37;;;12.10;99.90;;;;;;4157247;28;20354;-78
2021/05/13 09:41:01;;;;;;;10.30;6.47;;;12.20;99.90;;;;;;4150734;28;20213;-78
2021/05/13 09:43:10;;;;;;;11.87;6.40;;;12.20;99.90;;;;;;4151921;28;20261;-78
2021/05/13 09:45:12;;;;;;;11.00;5.77;;;12.30;99.90;;;;;;4154050;28;20225;-79
2021/05/13 09:47:20;;;;;;;12.23;5.77;;;12.20;99.90;;;;;;4151216;28;20439;-78
2021/05/13 09:49:21;;;;;;;9.73;5.53;;;12.30;99.90;;;;;;4152938;28;20582;-78
2021/05/13 09:51:25;;;;;;;9.23;6.00;;;12.20;99.90;;;;;;4155152;28;20214;-78
2021/05/13 09:53:26;;;;;;;7.20;5.00;;;12.20;99.90;;;;;;4158074;28;20603;-77
2021/05/13 09:55:29;;;;;;;10.40;5.67;;;12.20;99.90;;;;;;4156857;28;20214;-77
2021/05/13 09:57:30;;;;;;;8.07;4.83;;;12.30;99.90;;;;;;4156452;28;20210;-78
2021/05/13 09:59:34;;;;;;;9.10;4.80;;;12.30;99.90;;;;;;4158655;28;20210;-77
2021/05/13 10:01:36;;;;;;;11.83;5.17;;;12.20;99.90;;;;;;4159527;28;20211;-78
2021/05/13 10:03:38;;;;;;;11.67;5.27;;;12.20;99.90;;;;;;4160365;28;20254;-78
2021/05/13 10:05:42;;;;;;;9.87;5.87;;;12.30;99.90;;;;;;4157973;28;20242;-78
2021/05/13 10:07:43;;;;;;;8.43;5.40;;;12.40;99.90;;;;;;4156408;28;20222;-77
2021/05/13 10:09:46;;;;;;;12.63;5.73;;;12.40;99.90;;;;;;4163112;28;20579;-78
2021/05/13 10:11:50;;;;;;;14.10;6.30;;;12.50;99.90;;;;;;4158223;28;20218;-77
2021/05/13 10:13:54;;;;;;;9.80;5.67;;;12.60;99.90;;;;;;4159748;28;20645;-78
2021/05/13 10:15:55;;;;;;;7.57;5.10;;;12.70;99.90;;;;;;4157268;28;20261;-77
2021/05/13 10:18:00;;;;;;;9.07;4.97;;;12.70;99.90;;;;;;4159642;28;20233;-77
2021/05/13 10:20:03;;;;;;;8.90;5.07;;;12.80;99.90;;;;;;4161573;28;20512;-77
2021/05/13 10:22:06;;;;;;;8.97;5.60;;;12.80;99.90;;;;;;4154721;28;20268;-77
2021/05/13 10:24:09;;;;;;;10.40;3.47;;;12.80;99.90;;;;;;4157056;28;20238;-77
2021/05/13 10:26:36;;;;;;;5.70;3.50;;;12.90;99.90;;;;;;4160674;28;20230;-80
2021/05/13 10:28:37;;;;;;;6.83;4.27;;;12.90;99.90;;;;;;4164501;28;20229;-78
2021/05/13 10:30:38;;;;;;;9.10;4.17;;;13.00;99.90;;;;;;4164198;28;20265;-78
2021/05/13 10:32:39;;;;;;;7.13;3.93;;;13.10;99.90;;;;;;4162387;28;20242;-78
2021/05/13 10:34:48;;;;;;;7.53;3.40;;;13.10;99.90;;;;;;4162232;28;20628;-78
2021/05/13 10:37:08;;;;;;;4.27;2.70;;;13.10;99.90;;;;;;4164401;28;20230;-78
2021/05/13 10:39:11;;;;;;;4.43;3.27;;;13.00;99.90;;;;;;4162157;28;20214;-78